VIR491 EGLL-LEPA
Flight info
| Callsign | VIR491 |
|---|---|
| Flight time | 1h 54m |
| Altitude | 27000 |
| Route | MAXIT Y803 MID L151 SITET UN859 LGL/N0489F350 UN859 SOPIL DCT BALAN DCT EVPOK DCT NARAK DCT GAI DCT LOMRA DCT ROCAN DCT IBRAP N13 LORES |
| Aircraft | A35K/H-SDE2E3GHIJ3J4J5LM1ORWXY/LB1D1 |
Departure
| Time | 2026-05-04 15:26 |
|---|---|
| Airport | London Heathrow Airport (EGLL) |
Arrival
| Time | 2026-05-04 17:20 |
|---|---|
| Airport | Palma de Mallorca Airport (LEPA) |
| Time | Latitude | Longitude | Altitude | Speed | Heading |
|---|---|---|---|---|---|
| 2026-05-04 15:04 | 51.47046 | -0.46342 | 95 ft | 0 kts | 236° |
| 2026-05-04 15:16 | 51.47053 | -0.46325 | 94 ft | 3 kts | 236° |
| 2026-05-04 15:16 | 51.47070 | -0.46276 | 90 ft | 3 kts | 256° |
| 2026-05-04 15:17 | 51.47071 | -0.46245 | 89 ft | 3 kts | 291° |
| 2026-05-04 15:17 | 51.47072 | -0.46235 | 89 ft | 2 kts | 318° |
| 2026-05-04 15:17 | 51.47081 | -0.46246 | 93 ft | 0 kts | 323° |
| 2026-05-04 15:19 | 51.47082 | -0.46247 | 93 ft | 1 kts | 322° |
| 2026-05-04 15:19 | 51.47147 | -0.46323 | 95 ft | 16 kts | 325° |
| 2026-05-04 15:20 | 51.47230 | -0.46453 | 95 ft | 14 kts | 284° |
| 2026-05-04 15:20 | 51.47238 | -0.46617 | 92 ft | 17 kts | 272° |
| 2026-05-04 15:20 | 51.47314 | -0.46728 | 92 ft | 16 kts | 354° |
| 2026-05-04 15:20 | 51.47433 | -0.46749 | 95 ft | 17 kts | 349° |
| 2026-05-04 15:21 | 51.47505 | -0.46667 | 96 ft | 15 kts | 75° |
| 2026-05-04 15:21 | 51.47514 | -0.46491 | 94 ft | 17 kts | 88° |
| 2026-05-04 15:21 | 51.47518 | -0.46065 | 91 ft | 21 kts | 90° |
| 2026-05-04 15:22 | 51.47514 | -0.45817 | 93 ft | 23 kts | 95° |
| 2026-05-04 15:22 | 51.47507 | -0.45547 | 95 ft | 25 kts | 90° |
| 2026-05-04 15:22 | 51.47508 | -0.44947 | 94 ft | 28 kts | 88° |
| 2026-05-04 15:23 | 51.47511 | -0.44661 | 94 ft | 21 kts | 92° |
| 2026-05-04 15:23 | 51.47509 | -0.44417 | 94 ft | 23 kts | 92° |
| 2026-05-04 15:23 | 51.47508 | -0.44180 | 94 ft | 14 kts | 87° |
| 2026-05-04 15:23 | 51.47507 | -0.44013 | 95 ft | 27 kts | 91° |
| 2026-05-04 15:24 | 51.47525 | -0.43600 | 95 ft | 13 kts | 3° |
| 2026-05-04 15:24 | 51.47716 | -0.43430 | 99 ft | 15 kts | 0° |
| 2026-05-04 15:25 | 51.47766 | -0.43529 | 97 ft | 13 kts | 269° |
| 2026-05-04 15:25 | 51.47765 | -0.43844 | 91 ft | 62 kts | 270° |
| 2026-05-04 15:25 | 51.47762 | -0.44952 | 102 ft | 135 kts | 269° |
| 2026-05-04 15:26 | 51.47641 | -0.48551 | 1411 ft | 160 kts | 270° |
| 2026-05-04 15:26 | 51.47586 | -0.50436 | 2122 ft | 180 kts | 267° |
| 2026-05-04 15:26 | 51.47279 | -0.54843 | 3749 ft | 215 kts | 263° |
| 2026-05-04 15:27 | 51.46900 | -0.57195 | 4607 ft | 216 kts | 240° |
| 2026-05-04 15:27 | 51.44514 | -0.59980 | 6131 ft | 230 kts | 199° |
| 2026-05-04 15:28 | 51.41089 | -0.60860 | 7447 ft | 264 kts | 187° |
| 2026-05-04 15:28 | 51.39243 | -0.60841 | 8508 ft | 269 kts | 171° |
| 2026-05-04 15:28 | 51.35597 | -0.59005 | 10465 ft | 285 kts | 162° |
| 2026-05-04 15:29 | 51.33655 | -0.57918 | 10940 ft | 309 kts | 162° |
| 2026-05-04 15:30 | 51.24279 | -0.56344 | 13629 ft | 365 kts | 188° |
| 2026-05-04 15:30 | 51.16651 | -0.58736 | 16254 ft | 378 kts | 192° |
| 2026-05-04 15:31 | 51.11452 | -0.60521 | 18002 ft | 386 kts | 192° |
| 2026-05-04 15:31 | 51.08795 | -0.61250 | 18815 ft | 389 kts | 186° |
| 2026-05-04 15:32 | 51.00719 | -0.59531 | 21262 ft | 403 kts | 162° |
| 2026-05-04 15:32 | 50.95429 | -0.56162 | 22839 ft | 413 kts | 159° |
| 2026-05-04 15:33 | 50.90088 | -0.52493 | 24300 ft | 421 kts | 159° |
| 2026-05-04 15:34 | 50.81950 | -0.47046 | 26464 ft | 428 kts | 160° |
| 2026-05-04 15:34 | 50.79186 | -0.45232 | 27119 ft | 432 kts | 160° |
| 2026-05-04 15:34 | 50.73581 | -0.41573 | 28450 ft | 439 kts | 160° |
| 2026-05-04 15:35 | 50.67889 | -0.37867 | 29716 ft | 445 kts | 160° |
| 2026-05-04 15:35 | 50.65013 | -0.35997 | 30263 ft | 449 kts | 160° |
| 2026-05-04 15:35 | 50.62110 | -0.34110 | 30698 ft | 454 kts | 160° |
| 2026-05-04 15:36 | 50.56253 | -0.30311 | 31545 ft | 461 kts | 160° |
| 2026-05-04 15:36 | 50.53273 | -0.28380 | 31973 ft | 464 kts | 159° |
| 2026-05-04 15:36 | 50.50271 | -0.26439 | 32489 ft | 464 kts | 159° |
| 2026-05-04 15:37 | 50.47298 | -0.24517 | 33117 ft | 462 kts | 159° |
| 2026-05-04 15:37 | 50.44366 | -0.22626 | 33740 ft | 460 kts | 159° |
| 2026-05-04 15:37 | 50.41404 | -0.20718 | 34223 ft | 459 kts | 159° |
| 2026-05-04 15:37 | 50.38437 | -0.18809 | 34547 ft | 462 kts | 159° |
| 2026-05-04 15:38 | 50.35445 | -0.16889 | 34864 ft | 464 kts | 159° |
| 2026-05-04 15:38 | 50.32440 | -0.14963 | 34979 ft | 466 kts | 159° |
| 2026-05-04 15:38 | 50.26462 | -0.11137 | 34988 ft | 466 kts | 159° |
| 2026-05-04 15:39 | 50.21451 | -0.07938 | 34985 ft | 467 kts | 159° |
| 2026-05-04 15:40 | 50.12503 | -0.01861 | 34982 ft | 468 kts | 156° |
| 2026-05-04 15:40 | 50.06351 | 0.01408 | 34978 ft | 466 kts | 166° |
| 2026-05-04 15:41 | 50.00072 | 0.03987 | 34982 ft | 466 kts | 167° |
| 2026-05-04 15:41 | 49.93809 | 0.06418 | 34978 ft | 466 kts | 167° |
| 2026-05-04 15:42 | 49.87520 | 0.08854 | 34986 ft | 465 kts | 167° |
| 2026-05-04 15:42 | 49.81236 | 0.11302 | 34985 ft | 465 kts | 167° |
| 2026-05-04 15:43 | 49.74997 | 0.13736 | 34981 ft | 465 kts | 167° |
| 2026-05-04 15:43 | 49.68725 | 0.16178 | 34988 ft | 464 kts | 167° |
| 2026-05-04 15:44 | 49.62464 | 0.18660 | 34993 ft | 464 kts | 167° |
| 2026-05-04 15:44 | 49.56203 | 0.21200 | 35000 ft | 464 kts | 167° |
| 2026-05-04 15:45 | 49.49952 | 0.23727 | 34994 ft | 464 kts | 167° |
| 2026-05-04 15:45 | 49.43731 | 0.26223 | 34968 ft | 463 kts | 167° |
| 2026-05-04 15:46 | 49.37491 | 0.28715 | 34974 ft | 463 kts | 167° |
| 2026-05-04 15:46 | 49.31248 | 0.31201 | 34956 ft | 463 kts | 167° |
| 2026-05-04 15:47 | 49.25061 | 0.33750 | 34967 ft | 463 kts | 166° |
| 2026-05-04 15:47 | 49.18851 | 0.36396 | 34977 ft | 463 kts | 166° |
| 2026-05-04 15:48 | 49.12629 | 0.39034 | 34977 ft | 463 kts | 166° |
| 2026-05-04 15:48 | 49.03347 | 0.42928 | 34982 ft | 462 kts | 166° |
| 2026-05-04 15:49 | 48.97145 | 0.45516 | 34972 ft | 461 kts | 166° |
| 2026-05-04 15:49 | 48.90949 | 0.48095 | 34973 ft | 461 kts | 166° |
| 2026-05-04 15:50 | 48.84792 | 0.50651 | 34970 ft | 461 kts | 166° |
| 2026-05-04 15:50 | 48.78594 | 0.53218 | 34970 ft | 461 kts | 166° |
| 2026-05-04 15:51 | 48.72381 | 0.55709 | 34972 ft | 461 kts | 167° |
| 2026-05-04 15:51 | 48.66195 | 0.58100 | 34966 ft | 461 kts | 167° |
| 2026-05-04 15:52 | 48.59966 | 0.60512 | 34968 ft | 461 kts | 167° |
| 2026-05-04 15:52 | 48.53741 | 0.62932 | 34969 ft | 462 kts | 167° |
| 2026-05-04 15:53 | 48.47553 | 0.65383 | 34963 ft | 462 kts | 167° |
| 2026-05-04 15:53 | 48.41340 | 0.67927 | 34967 ft | 462 kts | 167° |
| 2026-05-04 15:54 | 48.35122 | 0.70469 | 34957 ft | 462 kts | 167° |
| 2026-05-04 15:54 | 48.28945 | 0.72975 | 34952 ft | 462 kts | 167° |
| 2026-05-04 15:55 | 48.22713 | 0.75489 | 34955 ft | 462 kts | 167° |
| 2026-05-04 15:55 | 48.16488 | 0.77942 | 34949 ft | 462 kts | 167° |
| 2026-05-04 15:56 | 48.10290 | 0.80359 | 34948 ft | 463 kts | 167° |
| 2026-05-04 15:56 | 48.04042 | 0.82800 | 34945 ft | 462 kts | 167° |
| 2026-05-04 15:57 | 47.97804 | 0.85238 | 34925 ft | 462 kts | 168° |
| 2026-05-04 15:57 | 47.91627 | 0.87647 | 34935 ft | 461 kts | 168° |
| 2026-05-04 15:58 | 47.85411 | 0.90065 | 34936 ft | 461 kts | 168° |
| 2026-05-04 15:58 | 47.79202 | 0.92482 | 34932 ft | 461 kts | 168° |
| 2026-05-04 15:59 | 47.73062 | 0.94858 | 34932 ft | 456 kts | 168° |
| 2026-05-04 15:59 | 47.66913 | 0.97227 | 34933 ft | 456 kts | 168° |
| 2026-05-04 16:00 | 47.60769 | 0.99591 | 34934 ft | 455 kts | 168° |
| 2026-05-04 16:00 | 47.54634 | 1.01947 | 34934 ft | 454 kts | 168° |
| 2026-05-04 16:01 | 47.48510 | 1.04294 | 34932 ft | 454 kts | 168° |
| 2026-05-04 16:01 | 47.42375 | 1.06159 | 34934 ft | 450 kts | 177° |
| 2026-05-04 16:02 | 47.36107 | 1.06365 | 34928 ft | 449 kts | 182° |
| 2026-05-04 16:03 | 47.26768 | 1.06108 | 34927 ft | 449 kts | 183° |
| 2026-05-04 16:03 | 47.20526 | 1.05925 | 34928 ft | 449 kts | 182° |
| 2026-05-04 16:04 | 47.14282 | 1.05769 | 34931 ft | 448 kts | 182° |
| 2026-05-04 16:04 | 47.04938 | 1.05554 | 34924 ft | 447 kts | 182° |
| 2026-05-04 16:05 | 46.98755 | 1.05385 | 34922 ft | 447 kts | 183° |
| 2026-05-04 16:06 | 46.89437 | 1.04959 | 34926 ft | 446 kts | 183° |
| 2026-05-04 16:07 | 46.77036 | 1.04408 | 34923 ft | 446 kts | 183° |
| 2026-05-04 16:08 | 46.64624 | 1.03883 | 34918 ft | 446 kts | 183° |
| 2026-05-04 16:09 | 46.49179 | 1.04208 | 34921 ft | 446 kts | 172° |
| 2026-05-04 16:10 | 46.37030 | 1.08161 | 34910 ft | 447 kts | 169° |
| 2026-05-04 16:11 | 46.24982 | 1.12226 | 34898 ft | 444 kts | 170° |
| 2026-05-04 16:12 | 46.06902 | 1.18208 | 34913 ft | 443 kts | 170° |
| 2026-05-04 16:13 | 45.94889 | 1.22162 | 34906 ft | 444 kts | 170° |
| 2026-05-04 16:14 | 45.82845 | 1.26110 | 34906 ft | 445 kts | 170° |
| 2026-05-04 16:16 | 45.67771 | 1.31028 | 34918 ft | 444 kts | 170° |
| 2026-05-04 16:17 | 45.52694 | 1.35917 | 34913 ft | 445 kts | 170° |
| 2026-05-04 16:18 | 45.40613 | 1.39822 | 34916 ft | 445 kts | 170° |
| 2026-05-04 16:19 | 45.25540 | 1.44657 | 34911 ft | 444 kts | 170° |
| 2026-05-04 16:20 | 45.10514 | 1.49457 | 34911 ft | 443 kts | 171° |
| 2026-05-04 16:22 | 44.95415 | 1.54250 | 34907 ft | 450 kts | 170° |
| 2026-05-04 16:23 | 44.76923 | 1.60092 | 34914 ft | 454 kts | 170° |
| 2026-05-04 16:25 | 44.58441 | 1.65890 | 34918 ft | 454 kts | 170° |
| 2026-05-04 16:26 | 44.37854 | 1.72304 | 34914 ft | 455 kts | 171° |
| 2026-05-04 16:28 | 44.22348 | 1.76696 | 34922 ft | 453 kts | 174° |
| 2026-05-04 16:29 | 44.00571 | 1.81276 | 34893 ft | 452 kts | 174° |
| 2026-05-04 16:31 | 43.85049 | 1.83643 | 34916 ft | 448 kts | 181° |
| 2026-05-04 16:32 | 43.66371 | 1.85225 | 34909 ft | 447 kts | 180° |
| 2026-05-04 16:33 | 43.53984 | 1.86429 | 34914 ft | 447 kts | 180° |
| 2026-05-04 16:34 | 43.44674 | 1.87323 | 34912 ft | 447 kts | 180° |
| 2026-05-04 16:35 | 43.26066 | 1.89109 | 34908 ft | 447 kts | 180° |
| 2026-05-04 16:36 | 43.16761 | 1.89993 | 34911 ft | 447 kts | 180° |
| 2026-05-04 16:37 | 43.07494 | 1.90874 | 34909 ft | 447 kts | 180° |
| 2026-05-04 16:38 | 42.95103 | 1.92048 | 34912 ft | 447 kts | 180° |
| 2026-05-04 16:39 | 42.79524 | 1.93520 | 34908 ft | 448 kts | 180° |
| 2026-05-04 16:40 | 42.67106 | 1.94925 | 34929 ft | 453 kts | 174° |
| 2026-05-04 16:41 | 42.51726 | 2.00252 | 34914 ft | 458 kts | 171° |
| 2026-05-04 16:43 | 42.36337 | 2.05800 | 34916 ft | 458 kts | 171° |
| 2026-05-04 16:43 | 42.27078 | 2.09093 | 34927 ft | 459 kts | 171° |
| 2026-05-04 16:45 | 42.08553 | 2.15646 | 34921 ft | 459 kts | 171° |
| 2026-05-04 16:46 | 41.93061 | 2.21099 | 34919 ft | 460 kts | 172° |
| 2026-05-04 16:47 | 41.80683 | 2.25435 | 34933 ft | 461 kts | 172° |
| 2026-05-04 16:48 | 41.68255 | 2.29779 | 34930 ft | 461 kts | 172° |
| 2026-05-04 16:49 | 41.55891 | 2.34080 | 34933 ft | 460 kts | 172° |
| 2026-05-04 16:50 | 41.43489 | 2.38380 | 34767 ft | 458 kts | 172° |
| 2026-05-04 16:51 | 41.37355 | 2.40501 | 34137 ft | 455 kts | 172° |
| 2026-05-04 16:51 | 41.34296 | 2.41558 | 33394 ft | 454 kts | 172° |
| 2026-05-04 16:51 | 41.28145 | 2.43673 | 31518 ft | 459 kts | 172° |
| 2026-05-04 16:52 | 41.21868 | 2.45827 | 30360 ft | 470 kts | 171° |
| 2026-05-04 16:52 | 41.18699 | 2.46916 | 29842 ft | 473 kts | 171° |
| 2026-05-04 16:53 | 41.12325 | 2.49107 | 28727 ft | 471 kts | 171° |
| 2026-05-04 16:53 | 41.02878 | 2.52344 | 27181 ft | 462 kts | 171° |
| 2026-05-04 16:54 | 40.99773 | 2.53405 | 26690 ft | 459 kts | 171° |
| 2026-05-04 16:55 | 40.87566 | 2.57564 | 24801 ft | 448 kts | 172° |
| 2026-05-04 16:55 | 40.81554 | 2.59606 | 23913 ft | 443 kts | 172° |
| 2026-05-04 16:56 | 40.75604 | 2.61622 | 22964 ft | 439 kts | 172° |
| 2026-05-04 16:56 | 40.66835 | 2.64587 | 21463 ft | 431 kts | 171° |
| 2026-05-04 16:57 | 40.63938 | 2.65565 | 20981 ft | 429 kts | 171° |
| 2026-05-04 16:57 | 40.58169 | 2.67509 | 20017 ft | 425 kts | 171° |
| 2026-05-04 16:58 | 40.49698 | 2.70578 | 18655 ft | 425 kts | 161° |
| 2026-05-04 16:58 | 40.47051 | 2.72327 | 18214 ft | 426 kts | 155° |
| 2026-05-04 16:59 | 40.41895 | 2.76105 | 17194 ft | 421 kts | 155° |
| 2026-05-04 17:00 | 40.32018 | 2.83293 | 15399 ft | 370 kts | 156° |
| 2026-05-04 17:00 | 40.25898 | 2.87722 | 14158 ft | 310 kts | 156° |
| 2026-05-04 17:01 | 40.22346 | 2.90808 | 13309 ft | 313 kts | 135° |
| 2026-05-04 17:01 | 40.20522 | 2.95993 | 12438 ft | 319 kts | 112° |
| 2026-05-04 17:02 | 40.19156 | 3.01532 | 11576 ft | 320 kts | 112° |
| 2026-05-04 17:02 | 40.17819 | 3.07023 | 10834 ft | 312 kts | 112° |
| 2026-05-04 17:03 | 40.17157 | 3.09748 | 10285 ft | 315 kts | 112° |
| 2026-05-04 17:03 | 40.16488 | 3.12500 | 9717 ft | 319 kts | 112° |
| 2026-05-04 17:03 | 40.15182 | 3.17885 | 8461 ft | 303 kts | 112° |
| 2026-05-04 17:04 | 40.13142 | 3.22377 | 7947 ft | 284 kts | 147° |
| 2026-05-04 17:04 | 40.09918 | 3.25258 | 7937 ft | 280 kts | 152° |
| 2026-05-04 17:05 | 40.06655 | 3.28022 | 7941 ft | 279 kts | 152° |
| 2026-05-04 17:05 | 40.03394 | 3.30780 | 7940 ft | 279 kts | 152° |
| 2026-05-04 17:06 | 40.00147 | 3.33525 | 7938 ft | 279 kts | 152° |
| 2026-05-04 17:06 | 39.98421 | 3.34615 | 7940 ft | 272 kts | 170° |
| 2026-05-04 17:07 | 39.94704 | 3.35079 | 7947 ft | 268 kts | 182° |
| 2026-05-04 17:07 | 39.94069 | 3.35113 | 7946 ft | 268 kts | 182° |
| 2026-05-04 17:07 | 39.90967 | 3.35271 | 7947 ft | 268 kts | 182° |
| 2026-05-04 17:07 | 39.89102 | 3.35362 | 7949 ft | 268 kts | 182° |
| 2026-05-04 17:08 | 39.87233 | 3.35453 | 7949 ft | 268 kts | 182° |
| 2026-05-04 17:08 | 39.83502 | 3.35642 | 7949 ft | 268 kts | 182° |
| 2026-05-04 17:08 | 39.81633 | 3.35739 | 7949 ft | 268 kts | 182° |
| 2026-05-04 17:09 | 39.79789 | 3.35833 | 7950 ft | 268 kts | 182° |
| 2026-05-04 17:09 | 39.77922 | 3.35930 | 7951 ft | 268 kts | 182° |
| 2026-05-04 17:09 | 39.76063 | 3.36028 | 7949 ft | 266 kts | 182° |
| 2026-05-04 17:10 | 39.72336 | 3.36269 | 7946 ft | 267 kts | 182° |
| 2026-05-04 17:10 | 39.66860 | 3.36521 | 6790 ft | 259 kts | 189° |
| 2026-05-04 17:11 | 39.65124 | 3.36004 | 6381 ft | 253 kts | 205° |
| 2026-05-04 17:11 | 39.63662 | 3.34797 | 5901 ft | 249 kts | 225° |
| 2026-05-04 17:11 | 39.62391 | 3.30753 | 5072 ft | 249 kts | 269° |
| 2026-05-04 17:12 | 39.62481 | 3.29274 | 4975 ft | 248 kts | 273° |
| 2026-05-04 17:12 | 39.62858 | 3.24798 | 4956 ft | 251 kts | 272° |
| 2026-05-04 17:13 | 39.63341 | 3.18037 | 4956 ft | 250 kts | 271° |
| 2026-05-04 17:14 | 39.63789 | 3.11296 | 4957 ft | 250 kts | 271° |
| 2026-05-04 17:14 | 39.63935 | 3.09045 | 4955 ft | 250 kts | 271° |
| 2026-05-04 17:14 | 39.64223 | 3.04637 | 4966 ft | 245 kts | 271° |
| 2026-05-04 17:15 | 39.64365 | 3.02455 | 4952 ft | 235 kts | 271° |
| 2026-05-04 17:15 | 39.64623 | 2.98543 | 4971 ft | 210 kts | 270° |
| 2026-05-04 17:16 | 39.64359 | 2.94841 | 4967 ft | 207 kts | 242° |
| 2026-05-04 17:16 | 39.62149 | 2.90244 | 4656 ft | 185 kts | 238° |
| 2026-05-04 17:17 | 39.61491 | 2.88822 | 4078 ft | 186 kts | 238° |
| 2026-05-04 17:17 | 39.59478 | 2.84531 | 2244 ft | 170 kts | 237° |
| 2026-05-04 17:18 | 39.58900 | 2.83306 | 2193 ft | 150 kts | 237° |
| 2026-05-04 17:18 | 39.57832 | 2.81040 | 2016 ft | 145 kts | 237° |
| 2026-05-04 17:19 | 39.56701 | 2.78668 | 790 ft | 164 kts | 237° |
| 2026-05-04 17:19 | 39.55584 | 2.76268 | 66 ft | 142 kts | 236° |
| 2026-05-04 17:20 | 39.54774 | 2.74552 | 37 ft | 63 kts | 238° |
| 2026-05-04 17:20 | 39.54552 | 2.73938 | 40 ft | 19 kts | 265° |
| 2026-05-04 17:20 | 39.54549 | 2.73842 | 40 ft | 5 kts | 269° |
| 2026-05-04 17:21 | 39.54549 | 2.73800 | 40 ft | 3 kts | 269° |
| 2026-05-04 17:21 | 39.54551 | 2.73769 | 41 ft | 4 kts | 283° |
| 2026-05-04 17:22 | 39.54599 | 2.73750 | 41 ft | 9 kts | 26° |
| 2026-05-04 17:22 | 39.54646 | 2.73828 | 40 ft | 14 kts | 57° |
| 2026-05-04 17:23 | 39.54921 | 2.74046 | 39 ft | 19 kts | 326° |
| 2026-05-04 17:23 | 39.54941 | 2.73966 | 39 ft | 9 kts | 278° |
| 2026-05-04 17:23 | 39.54968 | 2.73817 | 39 ft | 9 kts | 237° |
| 2026-05-04 17:24 | 39.54953 | 2.73784 | 39 ft | 0 kts | 239° |